METAR LSZS 181650Z 24005KT CAVOK M09/M15 Q1020 RMK X TL170=